Time;durP1;ratioP1;P1;durP2;ratioP2;P2;SDS_P1;SDS_P2;PMS_P1;PMS_P2;Temp;Humidity;BMP_temperature;BMP_pressure;BME280_temperature;BME280_humidity;BME280_pressure;Samples;Min_cycle;Max_cycle;Signal;HPM_P1;HPM_P2
2023/11/22 00:01:05;;;;;;;0.10;0.10;;;;;;;8.39;72.25;102895.59;5140315;27;20334;-83
2023/11/22 00:03:32;;;;;;;0.20;0.20;;;;;;;8.39;72.14;102920.25;5140411;27;20035;-82
2023/11/22 00:05:58;;;;;;;0.43;0.43;;;;;;;8.39;71.94;102904.41;5141334;27;20217;-82
2023/11/22 00:08:24;;;;;;;1.00;1.00;;;;;;;8.39;72.32;102914.09;5138671;27;20077;-83
2023/11/22 00:10:50;;;;;;;0.20;0.20;;;;;;;8.41;72.07;102907.97;5139719;27;20080;-82
2023/11/22 00:13:16;;;;;;;0.20;0.20;;;;;;;8.41;72.45;102902.69;5140920;27;20078;-82
2023/11/22 00:15:43;;;;;;;0.20;0.20;;;;;;;8.45;72.15;102913.31;5142062;27;20035;-81
2023/11/22 00:18:09;;;;;;;0.20;0.20;;;;;;;8.42;72.02;102907.13;5154601;27;20038;-81
2023/11/22 00:20:35;;;;;;;1.45;1.10;;;;;;;8.42;72.07;102907.13;5156465;27;20091;-81
2023/11/22 00:23:03;;;;;;;0.20;0.20;;;;;;;8.39;72.43;102914.97;5156694;27;20022;-81
2023/11/22 00:25:29;;;;;;;0.40;0.40;;;;;;;8.38;72.36;102922.88;5155353;27;20023;-81
2023/11/22 00:27:56;;;;;;;0.10;0.10;;;;;;;8.34;72.48;102921.91;5156486;27;20027;-81
2023/11/22 00:30:23;;;;;;;0.20;0.20;;;;;;;8.31;72.12;102927.13;5157319;27;20023;-81
2023/11/22 00:32:49;;;;;;;0.20;0.20;;;;;;;8.28;72.12;102927.03;5149586;27;20027;-83
2023/11/22 00:35:15;;;;;;;0.20;0.20;;;;;;;8.25;71.95;102926.97;5140333;27;20027;-83
2023/11/22 00:37:41;;;;;;;1.27;0.93;;;;;;;8.21;72.18;102925.09;5140366;27;20391;-82
2023/11/22 00:40:11;;;;;;;0.10;0.10;;;;;;;8.18;71.54;102925.06;5140511;27;20027;-82
2023/11/22 00:42:39;;;;;;;0.20;0.20;;;;;;;8.15;72.12;102943.44;5139503;27;20027;-83
2023/11/22 00:45:06;;;;;;;0.73;0.73;;;;;;;8.15;72.26;102940.81;5139203;27;20023;-83
2023/11/22 00:47:33;;;;;;;0.10;0.10;;;;;;;8.14;71.70;102949.56;5139653;27;20131;-83
2023/11/22 00:50:00;;;;;;;0.20;0.20;;;;;;;8.11;71.93;102939.84;5137564;27;20077;-83
2023/11/22 00:52:27;;;;;;;0.13;0.13;;;;;;;8.13;71.71;102935.50;5138325;27;20027;-83
2023/11/22 00:54:54;;;;;;;0.20;0.20;;;;;;;8.14;72.29;102934.66;5140086;27;20031;-83
2023/11/22 00:57:20;;;;;;;0.13;0.13;;;;;;;8.15;72.00;102939.06;5139710;27;20023;-81
2023/11/22 00:59:46;;;;;;;0.20;0.20;;;;;;;8.15;72.28;102935.53;5136023;27;20046;-82
2023/11/22 01:02:12;;;;;;;0.55;0.55;;;;;;;8.14;72.14;102941.66;5131700;27;20051;-82
2023/11/22 01:04:39;;;;;;;0.20;0.20;;;;;;;8.14;72.07;102950.47;5133796;27;20032;-80
2023/11/22 01:07:06;;;;;;;0.13;0.13;;;;;;;8.13;71.78;102958.38;5136616;27;20052;-83
2023/11/22 01:09:33;;;;;;;0.15;0.15;;;;;;;8.14;72.21;102960.13;5140722;27;20120;-81
2023/11/22 01:12:00;;;;;;;0.20;0.20;;;;;;;8.12;72.30;102962.75;5137719;27;20143;-81
2023/11/22 01:14:26;;;;;;;0.20;0.20;;;;;;;8.10;71.62;102962.72;5138257;27;20027;-82
2023/11/22 01:16:54;;;;;;;0.25;0.25;;;;;;;8.12;71.81;102970.66;5132720;27;20053;-82
2023/11/22 01:19:20;;;;;;;2.00;0.80;;;;;;;8.13;71.55;102980.38;5137500;27;20027;-81
2023/11/22 01:21:47;;;;;;;0.20;0.20;;;;;;;8.12;72.17;102988.28;5137816;27;20046;-83
2023/11/22 01:24:13;;;;;;;0.30;0.30;;;;;;;8.08;71.83;102982.91;5137529;27;20105;-81
2023/11/22 01:26:39;;;;;;;0.20;0.20;;;;;;;8.07;72.26;102991.69;5137742;27;20340;-81
2023/11/22 01:29:06;;;;;;;0.90;0.90;;;;;;;8.06;72.01;102989.91;5137185;27;20517;-81
2023/11/22 01:31:32;;;;;;;0.20;0.20;;;;;;;8.07;72.16;102989.06;5137447;27;20078;-80
2023/11/22 01:34:00;;;;;;;0.20;0.20;;;;;;;8.09;71.63;102987.34;5138553;27;20043;-81
2023/11/22 01:36:27;;;;;;;0.15;0.15;;;;;;;8.06;72.06;102984.63;5138462;27;20027;-81
2023/11/22 01:38:53;;;;;;;0.20;0.20;;;;;;;8.04;71.52;102970.50;5137870;27;20031;-81
2023/11/22 01:41:19;;;;;;;0.13;0.13;;;;;;;8.03;71.66;102968.69;5137260;27;20059;-82
2023/11/22 01:43:46;;;;;;;0.63;0.63;;;;;;;7.99;71.82;102977.41;5138502;27;20035;-82
2023/11/22 01:46:23;;;;;;;0.52;0.52;;;;;;;8.02;71.77;102977.47;5138811;27;20023;-83
2023/11/22 01:48:50;;;;;;;0.20;0.20;;;;;;;7.93;71.37;102983.41;5138662;27;20023;-81
2023/11/22 01:51:16;;;;;;;0.20;0.20;;;;;;;7.92;71.36;102991.28;5137240;27;20023;-81
2023/11/22 01:53:43;;;;;;;0.10;0.10;;;;;;;7.88;71.56;102989.44;5139374;27;20120;-81
2023/11/22 01:56:09;;;;;;;0.57;0.57;;;;;;;7.84;71.38;102992.84;5138528;27;20039;-81
2023/11/22 01:58:35;;;;;;;0.20;0.20;;;;;;;7.86;71.27;102997.31;5139880;27;20555;-81
2023/11/22 02:01:04;;;;;;;0.17;0.17;;;;;;;7.82;71.33;102998.06;5139948;27;20023;-81
2023/11/22 02:03:30;;;;;;;0.20;0.20;;;;;;;7.78;71.85;102986.53;5140234;27;20035;-81
2023/11/22 02:05:56;;;;;;;1.10;1.00;;;;;;;7.78;71.51;102993.59;5137998;27;20501;-81
2023/11/22 02:08:22;;;;;;;0.20;0.20;;;;;;;7.82;71.38;103000.72;5137595;27;20035;-81
2023/11/22 02:10:58;;;;;;;0.32;0.32;;;;;;;7.87;72.12;102993.81;5147575;27;20031;-82
2023/11/22 02:13:25;;;;;;;0.20;0.20;;;;;;;7.86;71.87;102999.06;5137751;27;20035;-81
2023/11/22 02:15:52;;;;;;;0.20;0.20;;;;;;;7.87;71.50;102995.56;5137240;27;20046;-81
2023/11/22 02:18:18;;;;;;;0.10;0.10;;;;;;;7.88;71.61;102992.09;5137647;27;20031;-81
2023/11/22 02:20:44;;;;;;;0.30;0.30;;;;;;;7.87;71.90;102998.22;5137867;27;20031;-81
2023/11/22 02:23:11;;;;;;;0.20;0.20;;;;;;;7.86;72.21;102988.50;5137015;27;20035;-81
2023/11/22 02:25:38;;;;;;;0.20;0.20;;;;;;;7.83;71.77;102991.94;5137122;27;20035;-82
2023/11/22 02:28:04;;;;;;;0.20;0.20;;;;;;;7.82;71.60;102994.56;5136865;27;20582;-81
2023/11/22 02:30:31;;;;;;;0.45;0.45;;;;;;;7.78;72.08;102983.91;5137311;27;20107;-81
2023/11/22 02:32:57;;;;;;;0.20;0.20;;;;;;;7.77;72.12;102982.13;5136182;27;20035;-81
2023/11/22 02:35:23;;;;;;;0.45;0.45;;;;;;;7.75;71.32;102978.56;5136863;27;20063;-81
2023/11/22 02:37:50;;;;;;;0.17;0.17;;;;;;;7.72;71.81;102972.31;5136778;27;20146;-81
2023/11/22 02:40:19;;;;;;;0.20;0.20;;;;;;;7.71;71.41;102976.72;5136933;27;20035;-81
2023/11/22 02:42:47;;;;;;;0.20;0.20;;;;;;;7.70;71.85;102980.19;5136635;27;20031;-81
2023/11/22 02:45:18;;;;;;;0.20;0.20;;;;;;;7.68;71.38;102986.28;5137464;27;20393;-81
2023/11/22 02:47:46;;;;;;;0.20;0.20;;;;;;;7.67;72.00;102993.28;5136701;27;20047;-81
2023/11/22 02:50:13;;;;;;;0.55;0.55;;;;;;;7.65;71.40;102980.91;5137113;27;20406;-81
2023/11/22 02:52:39;;;;;;;0.20;0.20;;;;;;;7.63;71.88;102985.25;5136454;27;20030;-81
2023/11/22 02:55:06;;;;;;;0.25;0.25;;;;;;;7.63;71.33;102994.06;5135726;27;20043;-81
2023/11/22 02:57:32;;;;;;;0.57;0.57;;;;;;;7.66;70.86;102987.97;5136303;27;20512;-81
2023/11/22 02:59:58;;;;;;;0.28;0.28;;;;;;;7.66;70.97;102985.34;5137570;27;20070;-81
2023/11/22 03:02:25;;;;;;;0.13;0.13;;;;;;;7.65;70.87;102981.81;5134489;27;20027;-81
2023/11/22 03:04:51;;;;;;;0.10;0.10;;;;;;;7.64;71.30;102985.31;5134358;27;20027;-81
2023/11/22 03:07:18;;;;;;;0.20;0.20;;;;;;;7.63;71.42;102987.88;5136404;27;20023;-81
2023/11/22 03:09:45;;;;;;;0.10;0.10;;;;;;;7.60;71.37;102986.06;5137326;27;20415;-81
2023/11/22 03:12:12;;;;;;;0.57;0.57;;;;;;;7.58;71.24;102985.16;5138632;28;20375;-81
2023/11/22 03:14:39;;;;;;;0.28;0.28;;;;;;;7.57;71.17;102991.25;5137448;28;20501;-81
2023/11/22 03:17:06;;;;;;;0.17;0.17;;;;;;;7.55;70.83;102999.16;5136254;28;20039;-82
2023/11/22 03:19:33;;;;;;;0.20;0.20;;;;;;;7.54;70.45;102999.06;5135205;28;20063;-81
2023/11/22 03:22:02;;;;;;;0.15;0.15;;;;;;;7.54;70.88;103007.00;5135673;28;20023;-81
2023/11/22 03:24:30;;;;;;;0.13;0.13;;;;;;;7.51;70.99;102999.88;5136374;28;20088;-81
2023/11/22 03:26:58;;;;;;;0.73;0.73;;;;;;;7.51;70.89;103007.81;5136134;28;20080;-81
2023/11/22 03:29:25;;;;;;;0.15;0.15;;;;;;;7.51;71.39;103020.13;5135488;28;20110;-80
2023/11/22 03:31:52;;;;;;;0.20;0.20;;;;;;;7.55;71.24;103022.88;5134804;28;20091;-80
2023/11/22 03:34:19;;;;;;;0.15;0.15;;;;;;;7.56;71.03;103029.97;5135937;28;20031;-80
2023/11/22 03:36:45;;;;;;;0.20;0.20;;;;;;;7.57;71.17;103028.19;5135724;28;20247;-80
2023/11/22 03:39:14;;;;;;;0.20;0.20;;;;;;;7.57;71.00;103036.13;5130620;28;20091;-80
2023/11/22 03:41:41;;;;;;;0.20;0.20;;;;;;;7.59;70.81;103053.78;5133918;28;20143;-81
2023/11/22 03:44:08;;;;;;;1.38;0.68;;;;;;;7.61;70.77;103048.53;5134085;28;20050;-81
2023/11/22 03:46:36;;;;;;;0.20;0.20;;;;;;;7.62;71.40;103052.97;5133842;28;20114;-80
2023/11/22 03:49:04;;;;;;;0.20;0.20;;;;;;;7.63;71.39;103067.94;5133426;28;20031;-82
2023/11/22 03:51:30;;;;;;;0.20;0.20;;;;;;;7.65;71.46;103074.16;5131864;28;20031;-81
2023/11/22 03:53:57;;;;;;;0.10;0.10;;;;;;;7.68;71.41;103070.72;5134046;28;20034;-80
2023/11/22 03:56:23;;;;;;;0.20;0.20;;;;;;;7.67;71.38;103074.22;5134122;28;20094;-81
2023/11/22 03:58:49;;;;;;;0.20;0.20;;;;;;;7.68;71.12;103079.50;5134159;28;20063;-80
2023/11/22 04:01:16;;;;;;;0.50;0.50;;;;;;;7.70;71.00;103074.28;5134139;28;20038;-81
2023/11/22 04:03:42;;;;;;;0.20;0.20;;;;;;;7.71;71.56;103079.63;5134644;28;20054;-81
2023/11/22 04:06:09;;;;;;;0.60;0.60;;;;;;;7.72;71.56;103081.38;5134673;28;20151;-81
2023/11/22 04:08:35;;;;;;;0.20;0.20;;;;;;;7.70;71.50;103077.81;5135355;28;20037;-80
2023/11/22 04:11:01;;;;;;;0.40;0.40;;;;;;;7.72;71.36;103075.22;5135444;28;20042;-81
2023/11/22 04:13:28;;;;;;;1.27;1.27;;;;;;;7.73;71.50;103074.38;5135658;28;20398;-80
2023/11/22 04:15:54;;;;;;;0.20;0.20;;;;;;;7.73;71.21;103077.91;5135139;28;20063;-81
2023/11/22 04:18:21;;;;;;;0.73;0.73;;;;;;;7.72;71.66;103093.69;5135363;27;20106;-80
2023/11/22 04:20:47;;;;;;;0.20;0.20;;;;;;;7.74;71.12;103084.09;5137907;27;20075;-82
2023/11/22 04:23:14;;;;;;;0.20;0.20;;;;;;;7.68;71.92;103092.72;5139421;27;20559;-80
2023/11/22 04:25:41;;;;;;;0.40;0.40;;;;;;;7.69;71.62;103088.31;5140340;27;20087;-81
2023/11/22 04:28:09;;;;;;;0.20;0.20;;;;;;;7.69;71.85;103094.50;5138321;27;20439;-81
2023/11/22 04:30:36;;;;;;;2.13;1.10;;;;;;;7.69;72.00;103094.50;5138115;27;20469;-81
2023/11/22 04:33:02;;;;;;;0.20;0.20;;;;;;;7.69;71.43;103105.06;5137869;27;20455;-81
2023/11/22 04:35:28;;;;;;;0.13;0.13;;;;;;;7.67;71.76;103098.84;5138546;27;20035;-81
2023/11/22 04:37:55;;;;;;;0.40;0.40;;;;;;;7.72;71.67;103114.81;5139263;27;20027;-80
2023/11/22 04:40:21;;;;;;;0.20;0.20;;;;;;;7.78;71.37;103104.41;5140012;27;20054;-80
2023/11/22 04:42:48;;;;;;;0.63;0.63;;;;;;;7.82;71.80;103108.94;5144212;27;20042;-81
2023/11/22 04:45:14;;;;;;;0.20;0.20;;;;;;;7.81;71.71;103103.63;5141030;27;20027;-80
2023/11/22 04:47:40;;;;;;;0.10;0.10;;;;;;;7.81;71.62;103103.63;5150115;27;20037;-81
2023/11/22 04:50:07;;;;;;;0.55;0.47;;;;;;;7.81;71.35;103100.97;5153001;27;20047;-81
2023/11/22 04:52:33;;;;;;;1.48;1.27;;;;;;;7.82;71.72;103101.00;5157702;27;20041;-81
2023/11/22 04:54:59;;;;;;;0.30;0.30;;;;;;;7.82;71.53;103094.84;5158099;27;20046;-80
2023/11/22 04:57:25;;;;;;;0.20;0.20;;;;;;;7.83;71.47;103086.97;5151589;27;20046;-81
2023/11/22 04:59:52;;;;;;;0.40;0.40;;;;;;;7.83;71.00;103092.25;5150731;27;20080;-82
2023/11/22 05:02:18;;;;;;;0.30;0.30;;;;;;;7.81;71.04;103083.38;5143644;27;20027;-81
2023/11/22 05:04:48;;;;;;;0.20;0.20;;;;;;;7.83;71.04;103089.59;5140680;27;20019;-84
2023/11/22 05:07:15;;;;;;;0.20;0.20;;;;;;;7.84;71.57;103095.75;5136874;27;20118;-83
2023/11/22 05:09:43;;;;;;;0.20;0.20;;;;;;;7.85;71.52;103097.56;5137135;27;20083;-82
2023/11/22 05:12:10;;;;;;;0.30;0.30;;;;;;;7.85;71.69;103098.47;5136164;27;20031;-82
2023/11/22 05:14:37;;;;;;;0.10;0.10;;;;;;;7.83;71.37;103097.53;5136907;27;20031;-83
2023/11/22 05:17:04;;;;;;;0.10;0.10;;;;;;;7.85;71.44;103097.56;5136288;27;20425;-81
2023/11/22 05:19:31;;;;;;;0.20;0.20;;;;;;;7.83;71.68;103092.25;5136110;27;20023;-83
2023/11/22 05:21:57;;;;;;;0.20;0.20;;;;;;;7.84;71.38;103101.03;5136741;27;20027;-84
2023/11/22 05:24:24;;;;;;;0.20;0.20;;;;;;;7.86;71.15;103096.72;5137586;27;20080;-84
2023/11/22 05:26:50;;;;;;;0.20;0.20;;;;;;;7.88;71.10;103097.66;5137063;27;20027;-83
2023/11/22 05:29:16;;;;;;;0.20;0.20;;;;;;;7.88;71.06;103095.03;5136970;27;20038;-83
2023/11/22 05:31:42;;;;;;;0.20;0.20;;;;;;;7.88;70.96;103089.75;5135167;27;20054;-83
2023/11/22 05:34:08;;;;;;;0.20;0.20;;;;;;;7.87;71.28;103077.38;5136003;27;20131;-82
2023/11/22 05:36:34;;;;;;;0.20;0.20;;;;;;;7.80;70.57;103075.44;5136531;27;20027;-83
2023/11/22 05:39:00;;;;;;;0.20;0.20;;;;;;;7.77;70.84;103074.47;5136155;27;20122;-82
2023/11/22 05:41:27;;;;;;;0.30;0.30;;;;;;;7.73;71.25;103069.97;5136247;27;20023;-82
2023/11/22 05:43:53;;;;;;;0.20;0.20;;;;;;;7.72;71.18;103070.81;5136368;27;20039;-82
2023/11/22 05:46:22;;;;;;;0.28;0.28;;;;;;;7.72;71.41;103076.09;5135357;27;20109;-84
2023/11/22 05:48:50;;;;;;;2.85;1.55;;;;;;;7.73;70.77;103077.91;5135528;27;20037;-79
2023/11/22 05:51:17;;;;;;;0.20;0.20;;;;;;;7.73;71.02;103085.81;5135033;27;20019;-81
2023/11/22 05:53:43;;;;;;;0.10;0.10;;;;;;;7.75;71.05;103085.84;5136638;27;20054;-81
2023/11/22 05:56:10;;;;;;;0.20;0.20;;;;;;;7.73;71.24;103085.81;5135829;27;20035;-80
2023/11/22 05:58:38;;;;;;;0.30;0.30;;;;;;;7.75;71.17;103094.69;5136986;27;20035;-81
2023/11/22 06:01:05;;;;;;;0.20;0.20;;;;;;;7.77;71.42;103087.69;5135078;27;20030;-80
2023/11/22 06:03:32;;;;;;;0.30;0.30;;;;;;;7.75;71.47;103089.41;5136667;27;20498;-79
2023/11/22 06:05:58;;;;;;;0.30;0.30;;;;;;;7.73;71.08;103100.75;5136369;27;20030;-80
2023/11/22 06:08:25;;;;;;;0.35;0.35;;;;;;;7.75;70.99;103110.50;5137247;27;20031;-81
2023/11/22 06:10:52;;;;;;;1.00;1.00;;;;;;;7.71;70.92;103119.19;5136406;27;20031;-82
2023/11/22 06:13:19;;;;;;;1.10;1.10;;;;;;;7.70;71.17;103120.03;5136880;27;20034;-80
2023/11/22 06:15:45;;;;;;;0.30;0.30;;;;;;;7.70;71.30;103135.88;5135901;27;20547;-80
2023/11/22 06:18:13;;;;;;;2.35;2.13;;;;;;;7.72;71.52;103136.78;5134282;27;20508;-81
2023/11/22 06:20:40;;;;;;;15.88;1.23;;;;;;;7.69;70.75;103142.00;5135937;27;20102;-81
2023/11/22 06:23:06;;;;;;;0.22;0.22;;;;;;;7.71;71.32;103148.22;5134602;27;20051;-81
2023/11/22 06:25:33;;;;;;;0.40;0.40;;;;;;;7.69;71.21;103152.56;5136382;27;20502;-82
2023/11/22 06:27:59;;;;;;;0.20;0.20;;;;;;;7.66;70.97;103144.53;5136503;27;20497;-81
2023/11/22 06:30:25;;;;;;;1.45;1.30;;;;;;;7.65;71.08;103134.84;5136867;27;20495;-81
2023/11/22 06:32:52;;;;;;;0.20;0.20;;;;;;;7.63;71.33;103131.28;5136817;27;20186;-82
2023/11/22 06:35:18;;;;;;;0.20;0.20;;;;;;;7.59;70.60;103116.22;5137075;27;20038;-82
2023/11/22 06:37:44;;;;;;;1.08;1.08;;;;;;;7.54;70.91;103115.16;5137894;27;20405;-81
2023/11/22 06:40:13;;;;;;;0.20;0.20;;;;;;;7.52;71.09;103111.59;5140152;27;20114;-82
2023/11/22 06:42:40;;;;;;;1.38;1.27;;;;;;;7.51;70.56;103104.53;5140006;27;20035;-82
2023/11/22 06:45:09;;;;;;;0.20;0.20;;;;;;;7.45;70.27;103116.69;5135676;27;20486;-83
2023/11/22 06:47:37;;;;;;;0.20;0.20;;;;;;;7.42;70.88;103100.75;5135069;27;20401;-82
2023/11/22 06:50:08;;;;;;;0.73;0.73;;;;;;;7.39;70.82;103095.41;5135494;27;20031;-81
2023/11/22 06:52:36;;;;;;;0.20;0.20;;;;;;;7.39;70.69;103095.41;5134957;27;20590;-82
2023/11/22 06:55:02;;;;;;;0.20;0.20;;;;;;;7.40;70.86;103099.84;5133762;27;20401;-83
2023/11/22 06:57:28;;;;;;;0.85;0.85;;;;;;;7.40;71.50;103105.13;5131101;27;20439;-82
2023/11/22 06:59:56;;;;;;;0.17;0.17;;;;;;;7.37;71.44;103093.56;5132923;27;20119;-82
2023/11/22 07:02:22;;;;;;;0.13;0.13;;;;;;;7.35;70.70;103098.81;5132995;27;20031;-82
2023/11/22 07:04:48;;;;;;;4.10;0.85;;;;;;;7.35;71.19;103114.63;5134652;27;20033;-81
2023/11/22 07:07:14;;;;;;;0.28;0.28;;;;;;;7.34;70.91;103128.66;5133824;27;20499;-82
2023/11/22 07:09:43;;;;;;;1.15;1.15;;;;;;;7.37;70.72;103135.78;5133452;27;20015;-81
2023/11/22 07:12:10;;;;;;;0.50;0.50;;;;;;;7.36;71.39;103145.41;5133661;27;20023;-81
2023/11/22 07:14:36;;;;;;;0.20;0.20;;;;;;;7.36;71.33;103137.50;5134784;28;20414;-81
2023/11/22 07:17:03;;;;;;;0.55;0.55;;;;;;;7.37;71.21;103149.84;5133050;28;20035;-81
2023/11/22 07:19:29;;;;;;;0.15;0.15;;;;;;;7.37;71.27;103149.84;5134096;28;20107;-80
2023/11/22 07:21:55;;;;;;;0.30;0.30;;;;;;;7.36;71.56;103161.22;5134492;28;20123;-83
2023/11/22 07:24:21;;;;;;;0.20;0.20;;;;;;;7.36;71.43;103152.44;5133453;28;20115;-80
2023/11/22 07:26:47;;;;;;;0.17;0.17;;;;;;;7.31;70.68;103149.66;5134333;28;20035;-79
2023/11/22 07:29:13;;;;;;;0.77;0.77;;;;;;;7.31;71.37;103151.41;5134330;28;20031;-81
2023/11/22 07:31:40;;;;;;;4.85;1.52;;;;;;;7.29;70.64;103151.38;5133986;28;20066;-78
2023/11/22 07:34:06;;;;;;;0.30;0.30;;;;;;;7.26;70.47;103135.44;5134798;28;20027;-80
2023/11/22 07:36:33;;;;;;;0.40;0.40;;;;;;;7.23;70.53;103135.34;5133589;28;20034;-81
2023/11/22 07:38:59;;;;;;;0.20;0.20;;;;;;;7.21;70.96;103135.28;5132668;28;20443;-82
2023/11/22 07:41:26;;;;;;;0.40;0.40;;;;;;;7.19;70.90;103138.72;5131343;28;20027;-81
2023/11/22 07:43:53;;;;;;;2.17;0.88;;;;;;;7.17;70.51;103143.06;5133376;28;20033;-81
2023/11/22 07:46:20;;;;;;;1.20;1.13;;;;;;;7.16;70.84;103154.47;5133275;28;20171;-78
2023/11/22 07:48:47;;;;;;;0.35;0.35;;;;;;;7.15;70.48;103165.84;5130404;28;20409;-79
2023/11/22 07:51:16;;;;;;;0.20;0.20;;;;;;;7.13;70.97;103163.19;5131774;28;20439;-81
2023/11/22 07:53:43;;;;;;;0.30;0.30;;;;;;;7.15;70.68;103179.03;5134766;27;20737;-79
2023/11/22 07:56:11;;;;;;;0.52;0.52;;;;;;;7.12;70.37;103175.44;5137158;27;20035;-79
2023/11/22 07:58:37;;;;;;;0.20;0.20;;;;;;;7.12;70.86;103179.84;5137727;27;20119;-83
2023/11/22 08:01:04;;;;;;;0.20;0.20;;;;;;;7.07;70.30;103182.31;5138564;27;20030;-83
2023/11/22 08:03:30;;;;;;;0.20;0.20;;;;;;;7.05;70.38;103194.56;5139888;27;20098;-82
2023/11/22 08:05:56;;;;;;;1.70;1.65;;;;;;;7.03;70.84;103190.97;5140308;27;20034;-82
2023/11/22 08:08:24;;;;;;;0.47;0.47;;;;;;;7.06;70.58;103188.44;5139217;27;20100;-82
2023/11/22 08:10:53;;;;;;;0.20;0.20;;;;;;;7.07;70.78;103194.63;5138330;27;20042;-79
2023/11/22 08:13:22;;;;;;;0.20;0.20;;;;;;;7.10;70.79;103202.59;5143335;27;20110;-81
2023/11/22 08:15:49;;;;;;;0.32;0.32;;;;;;;7.16;71.12;103199.28;5145510;27;20429;-82
2023/11/22 08:18:16;;;;;;;1.83;1.73;;;;;;;7.20;70.81;103194.16;5137624;27;20055;-82
2023/11/22 08:20:43;;;;;;;0.13;0.13;;;;;;;7.27;71.29;103195.25;5138309;27;20050;-83
2023/11/22 08:23:10;;;;;;;0.40;0.35;;;;;;;7.31;70.57;103196.25;5136471;27;20054;-82
2023/11/22 08:25:38;;;;;;;0.10;0.10;;;;;;;7.36;70.91;103199.91;5137748;27;20027;-82
2023/11/22 08:28:07;;;;;;;0.20;0.20;;;;;;;7.39;70.80;103216.72;5134313;27;20110;-82
2023/11/22 08:30:35;;;;;;;0.20;0.20;;;;;;;7.40;71.02;103215.88;5137941;27;20068;-82
2023/11/22 08:33:02;;;;;;;0.40;0.40;;;;;;;7.45;71.00;103216.94;5138952;27;20060;-81
2023/11/22 08:35:28;;;;;;;0.20;0.20;;;;;;;7.48;70.97;103218.75;5139094;27;20058;-86
2023/11/22 08:37:57;;;;;;;0.40;0.40;;;;;;;7.52;70.78;103222.41;5138372;27;20027;-80
2023/11/22 08:40:23;;;;;;;0.20;0.20;;;;;;;7.54;71.02;103212.75;5138090;27;20460;-80
2023/11/22 08:42:50;;;;;;;0.47;0.47;;;;;;;7.56;70.89;103201.44;5140076;27;20062;-80
2023/11/22 08:45:16;;;;;;;0.20;0.20;;;;;;;7.55;70.33;103198.72;5138275;27;20062;-81
2023/11/22 08:47:43;;;;;;;0.50;0.50;;;;;;;7.57;70.94;103191.78;5138235;27;20027;-81
2023/11/22 08:50:11;;;;;;;0.30;0.30;;;;;;;7.60;71.07;103189.19;5139009;27;20107;-81
2023/11/22 08:52:38;;;;;;;0.20;0.20;;;;;;;7.63;70.55;103184.03;5133384;27;20087;-80
2023/11/22 08:55:07;;;;;;;0.35;0.35;;;;;;;7.66;70.60;103186.75;5148758;27;20031;-79
2023/11/22 08:57:37;;;;;;;0.70;0.70;;;;;;;7.57;70.62;103183.84;5135717;27;20027;-80
2023/11/22 09:00:08;;;;;;;0.30;0.30;;;;;;;7.61;70.41;103186.63;5137257;27;20117;-81
2023/11/22 09:02:36;;;;;;;2.47;1.27;;;;;;;7.64;70.41;103179.63;5134962;27;20077;-79
2023/11/22 09:05:06;;;;;;;0.35;0.35;;;;;;;7.74;70.79;103179.97;5137483;27;20064;-81
2023/11/22 09:07:34;;;;;;;0.20;0.20;;;;;;;7.69;70.96;103173.66;5132882;27;20035;-80
2023/11/22 09:10:00;;;;;;;0.20;0.20;;;;;;;7.75;71.11;103179.13;5136714;27;20031;-80
2023/11/22 09:12:27;;;;;;;0.43;0.43;;;;;;;7.73;70.79;103180.81;5135169;27;20105;-80
2023/11/22 09:14:53;;;;;;;0.20;0.20;;;;;;;7.81;70.96;103188.06;5136353;27;20075;-80
2023/11/22 09:17:20;;;;;;;0.20;0.20;;;;;;;7.82;70.49;103192.50;5136590;27;20701;-80
2023/11/22 09:19:47;;;;;;;2.67;2.45;;;;;;;7.90;70.34;103199.78;5137748;27;20092;-80
2023/11/22 09:22:14;;;;;;;0.20;0.20;;;;;;;7.88;71.06;103205.88;5137512;27;20475;-79
2023/11/22 09:24:40;;;;;;;0.50;0.50;;;;;;;7.99;70.61;103198.25;5137382;27;20504;-80
2023/11/22 09:27:10;;;;;;;0.20;0.20;;;;;;;8.03;70.33;103216.00;5135468;27;20076;-80
2023/11/22 09:29:36;;;;;;;0.20;0.20;;;;;;;8.05;70.83;103204.63;5136725;27;20020;-80
2023/11/22 09:32:02;;;;;;;0.30;0.30;;;;;;;8.14;71.14;103205.72;5136364;27;20106;-80
2023/11/22 09:34:29;;;;;;;0.20;0.20;;;;;;;8.17;70.53;103203.16;5139895;27;20536;-78
2023/11/22 09:36:56;;;;;;;0.30;0.30;;;;;;;8.25;70.35;103201.66;5147376;27;20027;-79
2023/11/22 09:39:24;;;;;;;1.42;1.40;;;;;;;8.29;70.36;103200.88;5144584;27;20027;-78
2023/11/22 09:41:51;;;;;;;0.55;0.55;;;;;;;8.37;70.58;103195.78;5140007;27;20027;-79
2023/11/22 09:44:18;;;;;;;1.52;1.42;;;;;;;8.36;70.44;103192.28;5140388;27;20045;-79
2023/11/22 09:46:45;;;;;;;0.85;0.85;;;;;;;8.40;70.97;103191.50;5139611;27;20031;-78
2023/11/22 09:49:19;;;;;;;0.52;0.52;;;;;;;8.49;70.55;103190.00;5139279;27;20066;-79
2023/11/22 09:51:48;;;;;;;0.77;0.77;;;;;;;8.49;70.02;103188.22;5139211;27;20027;-80
2023/11/22 09:54:17;;;;;;;0.20;0.20;;;;;;;8.50;69.85;103181.19;5138606;27;20035;-81
2023/11/22 09:56:50;;;;;;;3.10;1.98;;;;;;;8.52;70.33;103182.13;5136240;27;20045;-80
2023/11/22 09:59:18;;;;;;;1.08;1.08;;;;;;;8.51;70.09;103180.34;5129626;27;20027;-81
2023/11/22 10:01:44;;;;;;;0.25;0.25;;;;;;;8.50;70.30;103191.75;5136981;27;20024;-81
2023/11/22 10:04:11;;;;;;;0.98;0.98;;;;;;;8.51;69.56;103188.25;5137319;27;20035;-81
2023/11/22 10:06:38;;;;;;;0.10;0.10;;;;;;;8.51;70.22;103180.34;5136571;27;20027;-82
2023/11/22 10:09:08;;;;;;;0.77;0.77;;;;;;;8.65;71.00;103184.25;5137405;27;20023;-81
2023/11/22 10:11:38;;;;;;;0.20;0.20;;;;;;;8.67;70.46;103177.25;5136861;27;20015;-81
2023/11/22 10:14:05;;;;;;;0.60;0.60;;;;;;;8.72;70.41;103175.63;5136382;27;20080;-81
2023/11/22 10:16:31;;;;;;;0.55;0.55;;;;;;;8.82;70.38;103167.91;5134502;27;20485;-80
2023/11/22 10:18:58;;;;;;;0.30;0.30;;;;;;;8.90;70.54;103154.00;5135936;27;20110;-81
2023/11/22 10:21:27;;;;;;;0.30;0.30;;;;;;;8.94;69.70;103156.75;5136657;27;20073;-81
2023/11/22 10:23:56;;;;;;;0.55;0.55;;;;;;;9.03;69.83;103160.50;5136016;27;20039;-81
2023/11/22 10:26:23;;;;;;;0.80;0.75;;;;;;;9.14;70.03;103159.88;5136647;27;20640;-86
2023/11/22 10:28:52;;;;;;;1.23;1.15;;;;;;;9.23;69.52;103162.72;5130000;27;20034;-80
2023/11/22 10:31:19;;;;;;;0.35;0.35;;;;;;;9.26;69.31;103149.56;5134716;27;20030;-82
2023/11/22 10:33:46;;;;;;;0.20;0.20;;;;;;;9.31;69.14;103142.63;5137241;27;20453;-80
2023/11/22 10:36:13;;;;;;;0.20;0.20;;;;;;;9.34;69.02;103147.97;5136767;27;20027;-83
2023/11/22 10:38:39;;;;;;;1.13;1.13;;;;;;;9.36;68.94;103134.78;5127868;27;20023;-80
2023/11/22 10:41:07;;;;;;;0.35;0.35;;;;;;;9.39;68.47;103130.47;5139461;27;20024;-79
2023/11/22 10:43:35;;;;;;;0.47;0.47;;;;;;;9.43;68.26;103141.09;5145698;27;20095;-81
2023/11/22 10:46:04;;;;;;;2.50;2.40;;;;;;;9.52;68.49;103125.41;5144292;27;20114;-80
2023/11/22 10:48:32;;;;;;;1.20;1.20;;;;;;;9.48;68.09;103134.16;5140617;27;20794;-79
2023/11/22 10:51:04;;;;;;;0.25;0.25;;;;;;;9.56;67.82;103122.00;5138368;27;20028;-80
2023/11/22 10:53:34;;;;;;;0.30;0.30;;;;;;;9.60;68.04;103123.81;5137270;27;20035;-80
2023/11/22 10:56:11;;;;;;;5.05;2.05;;;;;;;9.76;68.30;103105.59;5137617;27;20397;-80
2023/11/22 11:01:25;;;;;;;0.40;0.40;;;;;;;9.90;67.81;103101.47;5111347;27;20497;-79
2023/11/22 11:06:34;;;;;;;0.30;0.30;;;;;;;10.04;66.69;103105.28;5114443;27;20388;-79
2023/11/22 11:09:06;;;;;;;0.32;0.32;;;;;;;10.16;67.12;103104.59;5097575;28;20054;-78
2023/11/22 11:11:34;;;;;;;1.77;1.60;;;;;;;10.19;66.19;103101.13;5095241;28;20032;-79
2023/11/22 11:14:03;;;;;;;0.20;0.20;;;;;;;10.14;65.43;103105.44;5093097;28;20025;-79
2023/11/22 11:16:31;;;;;;;0.43;0.43;;;;;;;10.30;66.75;103104.84;5090175;28;20039;-78
2023/11/22 11:18:58;;;;;;;0.20;0.20;;;;;;;10.29;65.68;103094.22;5093290;28;20419;-82
2023/11/22 11:21:26;;;;;;;0.20;0.20;;;;;;;10.40;66.40;103087.38;5092860;28;20044;-82
2023/11/22 11:23:57;;;;;;;0.77;0.50;;;;;;;10.38;66.40;103085.56;5091993;28;20024;-82
2023/11/22 11:26:25;;;;;;;0.37;0.37;;;;;;;10.43;66.08;103070.63;5093643;28;20028;-82
2023/11/22 11:28:52;;;;;;;0.40;0.40;;;;;;;10.42;66.01;103068.84;5090620;28;20274;-82
2023/11/22 11:31:22;;;;;;;0.30;0.30;;;;;;;10.39;65.54;103064.38;5091740;28;20032;-82
2023/11/22 11:36:28;;;;;;;0.38;0.38;;;;;;;10.21;64.94;103051.72;5097791;27;1228885;-82
2023/11/22 11:38:56;;;;;;;0.20;0.20;;;;;;;10.19;64.41;103056.06;5118563;27;20479;-82
2023/11/22 11:41:27;;;;;;;1.90;1.48;;;;;;;10.11;64.88;103053.31;5115680;28;20383;-82